Allston, Massachusetts
Current Conditions -  °F | °C
As of 9:54 AM on Saturday 20 Dec 2014 (Local Time) from KBOS Reporting Station
Broken Clouds Broken Clouds  
Wind Chill: 22°   Ceiling: 2800
Heat Index: 30°   Visibility: 10mi
Dew Point: 22°   Wind: 9mph
Humidity: 72%   Direction: 330°NNW
Pressure: 30.3"   Gusts: NA
Location:  42.36°N, 71.13°W
Report Text: KBOS 201454Z 33008KT 10SM BKN028 BKN140 M01/M06 A3030 RMK AO2 SLP259 T10111056 51013
Loading
Personal Weather Stations






























Interactive Weather Map New forecast layout! Learn more

10-Day Weather Forecast

Advertisements
Track Severe Weather on mobile